createdAt,value
2017-09-05T00:01:36.575Z,49.90
2017-09-05T00:04:04.682Z,50.80
2017-09-05T00:06:32.775Z,50.70
2017-09-05T00:12:24.266Z,51.40
2017-09-05T00:18:04.951Z,51.30
2017-09-05T00:20:35.889Z,51.30
2017-09-05T00:23:06.424Z,51.20
2017-09-05T00:25:34.527Z,51.20
2017-09-05T00:28:02.633Z,51.30
2017-09-05T00:30:30.725Z,51.30
2017-09-05T00:32:58.820Z,51.20
2017-09-05T00:35:27.905Z,51.20
2017-09-05T00:37:56.026Z,51.30
2017-09-05T00:40:24.120Z,51.20
2017-09-05T00:42:52.211Z,51.20
2017-09-05T00:45:20.320Z,51.30
2017-09-05T00:47:48.425Z,51.10
2017-09-05T00:50:16.540Z,51.10
2017-09-05T00:52:44.648Z,51.80
2017-09-05T00:55:12.752Z,51.60
2017-09-05T00:57:40.861Z,51.80
2017-09-05T01:00:08.961Z,51.10
2017-09-05T01:02:37.158Z,52.00
2017-09-05T01:05:05.264Z,52.80
2017-09-05T01:07:33.339Z,52.10
2017-09-05T01:10:01.458Z,53.10
2017-09-05T01:12:29.553Z,52.70
2017-09-05T01:14:58.600Z,52.60
2017-09-05T01:17:26.713Z,52.10
2017-09-05T01:19:54.814Z,52.90
2017-09-05T01:22:22.911Z,52.40
2017-09-05T01:24:51.001Z,51.90
2017-09-05T01:27:19.106Z,53.10
2017-09-05T01:29:47.199Z,53.70
2017-09-05T01:32:15.305Z,54.90
2017-09-05T01:34:43.414Z,54.30
2017-09-05T01:37:11.508Z,54.60
2017-09-05T01:39:39.601Z,54.90
2017-09-05T01:42:07.756Z,54.10
2017-09-05T01:44:35.860Z,54.30
2017-09-05T01:47:03.969Z,54.80
2017-09-05T01:49:32.061Z,55.10
2017-09-05T01:52:00.164Z,55.20
2017-09-05T01:54:28.272Z,55.60
2017-09-05T01:56:56.363Z,55.90
2017-09-05T01:59:24.483Z,55.90
2017-09-05T02:01:52.575Z,55.30
2017-09-05T02:04:21.622Z,54.50
2017-09-05T02:06:49.707Z,54.50
2017-09-05T02:09:17.816Z,54.60
2017-09-05T02:11:45.900Z,54.20
2017-09-05T02:14:13.991Z,54.90
2017-09-05T02:16:42.087Z,54.40
2017-09-05T02:19:10.173Z,54.30
2017-09-05T02:21:38.273Z,54.20
2017-09-05T02:24:06.373Z,54.50
2017-09-05T02:26:34.480Z,55.50
2017-09-05T02:29:02.567Z,55.10
2017-09-05T02:31:30.677Z,54.70
2017-09-05T02:33:58.776Z,54.70
2017-09-05T02:36:26.884Z,56.10
2017-09-05T02:38:54.990Z,54.70
2017-09-05T02:41:23.088Z,55.20
2017-09-05T02:43:51.191Z,53.90
2017-09-05T02:46:19.288Z,54.80
2017-09-05T02:48:47.378Z,53.90
2017-09-05T02:51:15.465Z,54.50
2017-09-05T02:53:43.556Z,54.80
2017-09-05T02:56:11.662Z,55.00
2017-09-05T02:58:39.768Z,55.00
2017-09-05T03:01:07.857Z,54.60
2017-09-05T03:03:35.964Z,54.70
2017-09-05T03:06:04.051Z,55.30
2017-09-05T03:08:32.148Z,55.40
2017-09-05T03:11:00.244Z,55.50
2017-09-05T03:13:28.349Z,55.90
2017-09-05T03:15:56.452Z,55.40
2017-09-05T03:18:24.561Z,55.70
2017-09-05T03:20:52.650Z,55.40
2017-09-05T03:23:20.764Z,55.70
2017-09-05T03:25:48.855Z,54.80
2017-09-05T03:28:16.953Z,55.00
2017-09-05T03:30:45.800Z,54.50
2017-09-05T03:33:13.970Z,54.40
2017-09-05T03:35:42.064Z,55.00
2017-09-05T03:38:10.161Z,54.80
2017-09-05T03:40:38.269Z,55.10
2017-09-05T03:43:06.375Z,54.80
2017-09-05T03:45:34.472Z,55.20
2017-09-05T03:48:02.564Z,55.00
2017-09-05T03:50:30.680Z,55.50
2017-09-05T03:52:58.767Z,55.60
2017-09-05T03:55:26.864Z,57.00
2017-09-05T03:57:54.956Z,56.30
2017-09-05T04:00:23.048Z,55.30
2017-09-05T04:02:51.144Z,55.60
2017-09-05T04:05:19.256Z,55.10
2017-09-05T04:07:47.350Z,55.30
2017-09-05T04:10:15.496Z,55.40
2017-09-05T04:12:43.568Z,60.10
2017-09-05T04:15:11.669Z,55.00
2017-09-05T04:17:39.764Z,55.50
2017-09-05T04:20:07.856Z,54.80
2017-09-05T04:22:35.967Z,55.60
2017-09-05T04:25:04.060Z,55.10
2017-09-05T04:27:32.156Z,54.90
2017-09-05T04:30:00.248Z,55.20
2017-09-05T04:32:28.361Z,55.00
2017-09-05T04:34:56.464Z,56.00
2017-09-05T04:37:24.583Z,55.40
2017-09-05T04:39:52.682Z,55.90
2017-09-05T04:42:20.776Z,56.30
2017-09-05T04:44:48.879Z,55.60
2017-09-05T04:47:17.002Z,56.60
2017-09-05T04:49:45.081Z,55.80
2017-09-05T04:52:13.172Z,56.10
2017-09-05T04:54:41.239Z,55.30
2017-09-05T04:57:09.311Z,55.90
2017-09-05T04:59:37.395Z,55.30
2017-09-05T05:02:05.467Z,53.70
2017-09-05T05:04:33.565Z,53.90
2017-09-05T05:07:01.663Z,53.50
2017-09-05T05:09:29.734Z,53.60
2017-09-05T05:11:57.803Z,53.90
2017-09-05T05:14:25.903Z,53.90
2017-09-05T05:16:53.996Z,53.90
2017-09-05T05:19:22.070Z,54.10
2017-09-05T05:21:50.171Z,53.90
2017-09-05T05:24:18.271Z,53.50
2017-09-05T05:26:46.347Z,52.20
2017-09-05T05:29:14.431Z,51.90
2017-09-05T05:31:42.532Z,52.10
2017-09-05T05:34:10.607Z,51.70
2017-09-05T05:36:38.721Z,51.50
2017-09-05T05:39:06.790Z,52.00
2017-09-05T05:41:34.881Z,52.20
2017-09-05T05:44:02.964Z,51.60
2017-09-05T05:46:31.056Z,51.50
2017-09-05T05:48:59.131Z,51.70
2017-09-05T05:51:27.210Z,51.20
2017-09-05T05:53:55.283Z,51.10
2017-09-05T05:56:23.366Z,51.10
2017-09-05T05:58:51.448Z,51.20
2017-09-05T06:01:19.539Z,51.50
2017-09-05T06:03:47.606Z,50.80
2017-09-05T06:06:15.703Z,50.90
2017-09-05T06:08:43.778Z,50.90
2017-09-05T06:11:11.867Z,51.10
2017-09-05T06:13:39.952Z,51.00
2017-09-05T06:16:08.026Z,50.40
2017-09-05T06:18:36.144Z,50.20
2017-09-05T06:21:04.221Z,50.10
2017-09-05T06:23:32.332Z,50.20
2017-09-05T06:26:00.403Z,50.40
2017-09-05T06:28:28.492Z,50.00
2017-09-05T06:30:56.571Z,49.60
2017-09-05T06:33:24.655Z,48.60
2017-09-05T06:35:52.736Z,48.00
2017-09-05T06:38:20.828Z,47.30
2017-09-05T06:40:49.156Z,47.40
2017-09-05T06:43:17.243Z,47.30
2017-09-05T06:45:45.328Z,47.50
2017-09-05T06:48:13.426Z,47.40
2017-09-05T06:50:41.499Z,47.10
2017-09-05T06:53:09.575Z,47.40
2017-09-05T06:55:37.668Z,47.60
2017-09-05T06:58:05.745Z,47.10
2017-09-05T07:00:33.831Z,47.20
2017-09-05T07:03:01.963Z,46.80
2017-09-05T07:05:30.042Z,46.50
2017-09-05T07:07:58.120Z,46.00
2017-09-05T07:10:26.250Z,45.00
2017-09-05T07:12:54.327Z,44.10
2017-09-05T07:15:24.421Z,44.20
2017-09-05T07:17:52.501Z,43.60
2017-09-05T07:20:20.588Z,44.10
2017-09-05T07:22:48.661Z,44.30
2017-09-05T07:25:16.743Z,44.30
2017-09-05T07:27:44.811Z,43.70
2017-09-05T07:30:12.893Z,43.80
2017-09-05T07:32:40.959Z,43.50
2017-09-05T07:35:09.049Z,43.60
2017-09-05T07:37:37.124Z,44.40
2017-09-05T07:40:05.211Z,44.40
2017-09-05T07:42:33.295Z,45.40
2017-09-05T07:45:01.379Z,45.20
2017-09-05T07:47:29.469Z,44.70
2017-09-05T07:49:57.549Z,44.60
2017-09-05T07:52:25.631Z,44.70
2017-09-05T07:54:53.711Z,44.80
2017-09-05T07:57:21.805Z,44.90
2017-09-05T07:59:49.879Z,44.90
2017-09-05T08:02:17.981Z,44.00
2017-09-05T08:04:46.060Z,42.50
2017-09-05T08:07:14.137Z,43.30
2017-09-05T08:09:42.224Z,42.50
2017-09-05T08:12:10.304Z,42.80
2017-09-05T08:14:38.374Z,41.90
2017-09-05T08:17:07.168Z,42.20
2017-09-05T08:19:35.243Z,42.00
2017-09-05T08:22:03.316Z,42.20
2017-09-05T08:24:31.396Z,41.10
2017-09-05T08:26:59.479Z,41.20
2017-09-05T08:29:27.559Z,41.30
2017-09-05T08:31:55.641Z,41.10
2017-09-05T08:34:23.718Z,41.20
2017-09-05T08:36:51.788Z,40.60
2017-09-05T08:39:19.871Z,40.00
2017-09-05T08:41:47.960Z,40.20
2017-09-05T08:44:16.031Z,39.60
2017-09-05T08:46:44.112Z,39.20
2017-09-05T08:49:12.195Z,39.30
2017-09-05T08:51:40.488Z,39.70
2017-09-05T08:54:08.581Z,39.50
2017-09-05T08:56:36.647Z,39.40
2017-09-05T08:59:04.726Z,39.50
2017-09-05T09:01:33.016Z,39.50
2017-09-05T09:04:01.102Z,39.30
2017-09-05T09:06:29.188Z,38.50
2017-09-05T09:08:57.263Z,38.30
2017-09-05T09:11:25.355Z,37.60
2017-09-05T09:13:53.423Z,37.60
2017-09-05T09:16:21.512Z,37.70
2017-09-05T09:18:49.582Z,37.70
2017-09-05T09:21:17.681Z,35.40
2017-09-05T09:23:45.751Z,35.30
2017-09-05T09:26:13.845Z,34.90
2017-09-05T09:28:41.919Z,34.80
2017-09-05T09:31:10.012Z,33.70
2017-09-05T09:33:38.075Z,34.40
2017-09-05T09:36:06.167Z,33.50
2017-09-05T09:38:34.296Z,33.70
2017-09-05T09:41:02.363Z,33.60
2017-09-05T09:43:30.462Z,32.80
2017-09-05T09:45:58.540Z,32.00
2017-09-05T09:48:26.664Z,32.70
2017-09-05T09:50:54.731Z,33.30
2017-09-05T09:53:22.799Z,32.90
2017-09-05T09:55:50.868Z,33.40
2017-09-05T09:58:18.965Z,33.10
2017-09-05T10:00:47.031Z,32.60
2017-09-05T10:03:15.117Z,32.20
2017-09-05T10:05:43.205Z,32.20
2017-09-05T10:08:11.296Z,32.60
2017-09-05T10:10:39.363Z,32.30
2017-09-05T10:13:07.440Z,31.60
2017-09-05T10:15:35.519Z,31.40
2017-09-05T10:18:03.591Z,31.60
2017-09-05T10:20:31.667Z,31.90
2017-09-05T10:22:59.759Z,31.60
2017-09-05T10:25:27.835Z,31.90
2017-09-05T10:27:55.896Z,32.00
2017-09-05T10:30:23.967Z,32.10
2017-09-05T10:32:52.043Z,32.00
2017-09-05T10:35:20.120Z,32.10
2017-09-05T10:37:48.199Z,31.80
2017-09-05T10:40:16.285Z,31.70
2017-09-05T10:42:44.368Z,31.90
2017-09-05T10:45:12.528Z,31.70
2017-09-05T10:47:40.562Z,31.90
2017-09-05T10:50:08.640Z,31.70
2017-09-05T10:52:36.724Z,31.80
2017-09-05T10:55:04.808Z,31.40
2017-09-05T10:57:32.887Z,32.10
2017-09-05T11:00:00.968Z,32.20
2017-09-05T11:02:29.051Z,32.20
2017-09-05T11:04:57.170Z,32.40
2017-09-05T11:07:25.252Z,33.20
2017-09-05T11:09:53.321Z,33.90
2017-09-05T11:12:21.407Z,34.10
2017-09-05T11:14:49.476Z,34.50
2017-09-05T11:17:17.597Z,33.90
2017-09-05T11:19:45.678Z,34.10
2017-09-05T11:22:13.757Z,34.60
2017-09-05T11:24:41.855Z,34.00
2017-09-05T11:27:09.952Z,33.80
2017-09-05T11:29:38.030Z,33.30
2017-09-05T11:32:06.091Z,33.10
2017-09-05T11:34:34.379Z,32.80
2017-09-05T11:37:02.452Z,32.90
2017-09-05T11:39:30.580Z,33.20
2017-09-05T11:41:58.648Z,31.80
2017-09-05T11:44:27.279Z,32.70
2017-09-05T11:46:55.623Z,32.80
2017-09-05T11:49:23.708Z,32.70
2017-09-05T11:51:51.784Z,32.50
2017-09-05T11:54:19.863Z,32.60
2017-09-05T11:56:47.964Z,32.70
2017-09-05T11:59:16.050Z,32.20
2017-09-05T12:01:44.123Z,32.70
2017-09-05T12:04:12.218Z,32.40
2017-09-05T12:06:40.297Z,31.50
2017-09-05T12:09:08.403Z,31.50
2017-09-05T12:11:36.499Z,31.60
2017-09-05T12:14:04.576Z,31.60
2017-09-05T12:16:32.663Z,31.00
2017-09-05T12:19:00.753Z,30.70
2017-09-05T12:21:28.840Z,30.80
2017-09-05T12:23:56.911Z,30.50
2017-09-05T12:26:25.004Z,30.80
2017-09-05T12:28:53.073Z,30.50
2017-09-05T12:31:21.168Z,30.90
2017-09-05T12:33:49.247Z,30.10
2017-09-05T12:36:17.527Z,30.70
2017-09-05T12:38:45.597Z,30.50
2017-09-05T12:41:13.705Z,29.40
2017-09-05T12:43:41.784Z,29.30
2017-09-05T12:46:09.884Z,29.60
2017-09-05T12:48:37.972Z,29.60
2017-09-05T12:51:06.082Z,29.80
2017-09-05T12:53:34.171Z,29.80
2017-09-05T12:56:02.259Z,29.80
2017-09-05T12:58:30.361Z,30.10
2017-09-05T13:00:58.439Z,30.30
2017-09-05T13:03:26.519Z,30.60
2017-09-05T13:05:54.609Z,30.70
2017-09-05T13:08:22.705Z,30.80
2017-09-05T13:10:50.786Z,30.60
2017-09-05T13:13:18.883Z,31.10
2017-09-05T13:15:46.959Z,31.10
2017-09-05T13:18:15.049Z,30.50
2017-09-05T13:20:43.140Z,30.30
2017-09-05T13:23:11.250Z,31.10
2017-09-05T13:25:39.328Z,30.90
2017-09-05T13:28:07.424Z,31.00
2017-09-05T13:30:35.592Z,31.30
2017-09-05T13:33:04.596Z,31.30
2017-09-05T13:35:32.696Z,31.40
2017-09-05T13:38:00.826Z,31.50
2017-09-05T13:40:28.959Z,31.90
2017-09-05T13:42:57.126Z,32.00
2017-09-05T13:45:25.225Z,31.20
2017-09-05T13:47:53.357Z,31.00
2017-09-05T13:50:21.481Z,30.80
2017-09-05T13:52:49.606Z,30.90
2017-09-05T13:55:17.685Z,31.20
2017-09-05T13:57:45.875Z,30.90
2017-09-05T14:00:13.979Z,30.80
2017-09-05T14:02:42.076Z,30.40
2017-09-05T14:05:10.205Z,31.00
2017-09-05T14:07:38.280Z,30.80
2017-09-05T14:10:06.371Z,30.60
2017-09-05T14:12:34.483Z,30.00
2017-09-05T14:15:02.564Z,29.70
2017-09-05T14:17:30.710Z,30.00
2017-09-05T14:19:58.887Z,30.20
2017-09-05T14:22:26.973Z,30.00
2017-09-05T14:24:55.050Z,29.50
2017-09-05T14:27:23.160Z,29.30
2017-09-05T14:29:51.258Z,29.70
2017-09-05T14:32:19.352Z,29.70
2017-09-05T14:34:47.438Z,29.10
2017-09-05T14:37:15.585Z,29.10
2017-09-05T14:39:43.665Z,28.90
2017-09-05T14:42:11.775Z,29.20
2017-09-05T14:44:39.901Z,29.20
2017-09-05T14:47:07.989Z,29.40
2017-09-05T14:49:36.312Z,28.60
2017-09-05T14:52:05.173Z,28.20
2017-09-05T14:54:33.274Z,28.30
2017-09-05T14:57:01.377Z,28.50
2017-09-05T14:59:29.476Z,27.90
2017-09-05T15:01:57.601Z,28.10
2017-09-05T15:04:26.112Z,28.70
2017-09-05T15:06:54.181Z,28.70
2017-09-05T15:09:22.256Z,28.70
2017-09-05T15:11:50.327Z,28.80
2017-09-05T15:14:18.452Z,28.80
2017-09-05T15:16:46.533Z,28.30
2017-09-05T15:19:14.614Z,29.00
2017-09-05T15:21:42.692Z,28.20
2017-09-05T15:24:10.759Z,27.70
2017-09-05T15:26:38.845Z,27.40
2017-09-05T15:29:06.916Z,27.40
2017-09-05T15:31:34.992Z,28.00
2017-09-05T15:34:03.078Z,27.70
2017-09-05T15:36:31.163Z,27.50
2017-09-05T15:38:59.246Z,27.40
2017-09-05T15:41:27.337Z,27.50
2017-09-05T15:43:55.428Z,27.70
2017-09-05T15:46:23.510Z,27.90
2017-09-05T15:48:51.579Z,28.10
2017-09-05T15:51:19.667Z,27.90
2017-09-05T15:53:47.782Z,28.00
2017-09-05T15:56:15.867Z,27.70
2017-09-05T15:58:43.949Z,28.00
2017-09-05T16:01:12.088Z,28.20
2017-09-05T16:03:40.174Z,28.30
2017-09-05T16:06:08.245Z,29.00
2017-09-05T16:08:36.337Z,29.30
2017-09-05T16:11:04.484Z,29.60
2017-09-05T16:13:32.620Z,29.90
2017-09-05T16:16:00.773Z,30.20
2017-09-05T16:18:28.871Z,30.40
2017-09-05T16:20:56.947Z,31.20
2017-09-05T16:23:25.093Z,30.60
2017-09-05T16:25:53.256Z,30.10
2017-09-05T16:28:21.343Z,29.80
2017-09-05T16:30:49.482Z,30.20
2017-09-05T16:33:17.555Z,30.10
2017-09-05T16:35:45.683Z,30.00
2017-09-05T16:38:13.829Z,30.00
2017-09-05T16:40:41.955Z,30.10
2017-09-05T16:43:10.093Z,30.40
2017-09-05T16:45:38.160Z,30.10
2017-09-05T16:48:06.223Z,30.00
2017-09-05T16:50:34.433Z,30.00
2017-09-05T16:53:02.487Z,30.00
2017-09-05T16:55:30.628Z,30.40
2017-09-05T16:57:58.683Z,30.40
2017-09-05T17:00:26.962Z,30.90
2017-09-05T17:02:55.224Z,30.90
2017-09-05T17:05:23.485Z,30.90
2017-09-05T17:07:51.630Z,31.10
2017-09-05T17:10:19.818Z,31.70
2017-09-05T17:12:47.970Z,33.10
2017-09-05T17:15:16.112Z,32.40
2017-09-05T17:17:44.253Z,32.40
2017-09-05T17:20:12.414Z,33.20
2017-09-05T17:22:40.582Z,34.10
2017-09-05T17:25:08.745Z,34.60
2017-09-05T17:27:36.899Z,35.00
2017-09-05T17:30:05.032Z,35.10
2017-09-05T17:32:33.312Z,36.00
2017-09-05T17:35:01.589Z,36.30
2017-09-05T17:37:29.851Z,36.50
2017-09-05T17:39:58.232Z,36.80
2017-09-05T17:42:26.520Z,37.60
2017-09-05T17:44:54.788Z,36.80
2017-09-05T17:47:23.061Z,37.10
2017-09-05T17:49:51.273Z,36.80
2017-09-05T17:52:19.558Z,37.90
2017-09-05T17:54:47.698Z,37.50
2017-09-05T17:57:15.946Z,38.00
2017-09-05T17:59:44.181Z,37.90
2017-09-05T18:02:12.328Z,38.60
2017-09-05T18:04:40.616Z,39.00
2017-09-05T18:07:08.779Z,39.20
2017-09-05T18:09:37.062Z,39.70
2017-09-05T18:12:05.202Z,40.00
2017-09-05T18:14:33.480Z,40.70
2017-09-05T18:17:01.752Z,40.90
2017-09-05T18:19:30.036Z,41.00
2017-09-05T18:21:58.312Z,41.50
2017-09-05T18:24:27.222Z,42.30
2017-09-05T18:26:55.389Z,42.20
2017-09-05T18:29:23.650Z,42.30
2017-09-05T18:31:51.785Z,42.10
2017-09-05T18:34:20.062Z,42.40
2017-09-05T18:36:48.205Z,42.50
2017-09-05T18:39:16.483Z,42.90
2017-09-05T18:41:44.734Z,43.20
2017-09-05T18:44:12.923Z,43.40
2017-09-05T18:46:41.041Z,43.90
2017-09-05T18:49:09.111Z,44.60
2017-09-05T18:51:37.246Z,44.90
2017-09-05T18:54:05.384Z,45.00
2017-09-05T18:56:33.771Z,45.50
2017-09-05T18:59:02.027Z,45.70
2017-09-05T19:01:30.176Z,45.50
2017-09-05T19:03:58.253Z,45.40
2017-09-05T19:06:26.520Z,45.50
2017-09-05T19:08:54.779Z,45.10
2017-09-05T19:11:22.916Z,45.00
2017-09-05T19:13:50.975Z,44.70
2017-09-05T19:16:19.247Z,44.70
2017-09-05T19:18:47.508Z,44.70
2017-09-05T19:21:15.589Z,44.70
2017-09-05T19:23:43.711Z,45.00
2017-09-05T19:26:11.841Z,45.30
2017-09-05T19:28:40.102Z,45.90
2017-09-05T19:31:08.163Z,46.20
2017-09-05T19:33:36.445Z,46.40
2017-09-05T19:36:04.531Z,46.80
2017-09-05T19:38:32.808Z,46.90
2017-09-05T19:41:00.959Z,46.60
2017-09-05T19:43:29.090Z,46.60
2017-09-05T19:45:57.366Z,46.60
2017-09-05T19:48:25.660Z,46.60
2017-09-05T19:50:53.918Z,46.60
2017-09-05T19:53:22.059Z,46.90
2017-09-05T19:55:50.194Z,47.80
2017-09-05T19:58:18.311Z,47.50
2017-09-05T20:00:46.572Z,47.70
2017-09-05T20:03:14.840Z,47.90
2017-09-05T20:05:42.990Z,48.10
2017-09-05T20:08:11.249Z,48.00
2017-09-05T20:10:39.507Z,47.70
2017-09-05T20:13:07.774Z,47.60
2017-09-05T20:15:35.910Z,47.40
2017-09-05T20:18:04.049Z,47.70
2017-09-05T20:20:32.119Z,47.90
2017-09-05T20:23:00.382Z,48.20
2017-09-05T20:25:28.532Z,48.40
2017-09-05T20:27:56.592Z,48.30
2017-09-05T20:30:24.737Z,48.50
2017-09-05T20:32:52.869Z,48.50
2017-09-05T20:35:21.020Z,48.60
2017-09-05T20:37:49.140Z,48.40
2017-09-05T20:40:17.208Z,48.40
2017-09-05T20:42:45.339Z,48.40
2017-09-05T20:45:13.462Z,48.40
2017-09-05T20:47:41.615Z,48.40
2017-09-05T20:50:09.732Z,48.40
2017-09-05T20:52:37.878Z,48.40
2017-09-05T20:55:06.009Z,48.40
2017-09-05T20:57:34.087Z,48.40
2017-09-05T21:00:02.219Z,48.80
2017-09-05T21:02:30.321Z,49.20
2017-09-05T21:04:58.448Z,48.90
2017-09-05T21:07:26.525Z,48.80
2017-09-05T21:09:54.660Z,48.90
2017-09-05T21:12:22.727Z,49.00
2017-09-05T21:14:50.883Z,49.10
2017-09-05T21:17:19.029Z,49.00
2017-09-05T21:19:47.153Z,49.10
2017-09-05T21:22:15.213Z,49.50
2017-09-05T21:24:43.283Z,49.50
2017-09-05T21:27:11.412Z,49.70
2017-09-05T21:29:39.501Z,50.00
2017-09-05T21:32:07.637Z,50.10
2017-09-05T21:34:35.712Z,50.20
2017-09-05T21:37:03.841Z,50.40
2017-09-05T21:39:31.998Z,50.60
2017-09-05T21:42:00.157Z,50.40
2017-09-05T21:44:28.449Z,50.70
2017-09-05T21:46:56.515Z,51.00
2017-09-05T21:49:24.591Z,51.10
2017-09-05T21:51:52.672Z,51.20
2017-09-05T21:54:20.831Z,51.20
2017-09-05T21:56:49.457Z,51.10
2017-09-05T21:59:17.541Z,51.30
2017-09-05T22:01:45.644Z,51.10
2017-09-05T22:04:13.731Z,51.20
2017-09-05T22:06:41.882Z,51.30
2017-09-05T22:09:09.969Z,51.10
2017-09-05T22:11:38.069Z,50.80
2017-09-05T22:14:11.679Z,51.30
2017-09-05T22:16:41.713Z,51.10
2017-09-05T22:19:15.422Z,51.30
2017-09-05T22:21:43.508Z,51.70
2017-09-05T22:24:11.603Z,51.80
2017-09-05T22:29:40.415Z,52.00
2017-09-05T22:32:08.505Z,52.20
2017-09-05T22:34:36.583Z,52.00
2017-09-05T22:37:04.670Z,52.00
2017-09-05T22:39:32.758Z,51.80
2017-09-05T22:42:00.854Z,51.80
2017-09-05T22:44:28.929Z,51.60
2017-09-05T22:46:57.020Z,51.80
2017-09-05T22:49:25.102Z,51.90
2017-09-05T22:51:53.192Z,52.20
2017-09-05T22:54:21.268Z,52.90
2017-09-05T22:56:49.368Z,52.20
2017-09-05T22:59:17.496Z,52.40
2017-09-05T23:01:45.588Z,52.70
2017-09-05T23:04:13.665Z,53.00
2017-09-05T23:06:41.752Z,52.30
2017-09-05T23:09:09.843Z,52.60
2017-09-05T23:11:37.928Z,52.70
2017-09-05T23:14:06.028Z,52.70
2017-09-05T23:16:34.104Z,52.70
2017-09-05T23:19:02.188Z,52.90
2017-09-05T23:21:30.260Z,53.10
2017-09-05T23:23:58.348Z,52.80
2017-09-05T23:26:26.443Z,52.70
2017-09-05T23:28:54.529Z,52.40
2017-09-05T23:31:22.606Z,52.90
2017-09-05T23:33:50.696Z,53.00
2017-09-05T23:36:18.784Z,53.00
2017-09-05T23:38:46.877Z,53.10
2017-09-05T23:41:14.951Z,53.00
2017-09-05T23:43:43.059Z,52.90
2017-09-05T23:46:11.129Z,53.00
2017-09-05T23:48:39.226Z,53.20
2017-09-05T23:51:07.296Z,53.20
2017-09-05T23:53:35.389Z,53.40
2017-09-05T23:56:03.479Z,53.60
2017-09-05T23:58:31.584Z,53.80
